Time;durP1;ratioP1;P1;durP2;ratioP2;P2;SDS_P1;SDS_P2;PMS_P1;PMS_P2;Temp;Humidity;BMP_temperature;BMP_pressure;BME280_temperature;BME280_humidity;BME280_pressure;Samples;Min_cycle;Max_cycle;Signal;HPM_P1;HPM_P2
2021/12/30 00:01:28;;;;;;;93.38;35.92;;;;;;;6.69;63.67;100196.25;5067261;28;20128;-72
2021/12/30 00:03:55;;;;;;;91.15;35.97;;;;;;;6.67;64.06;100191.09;5073673;28;20508;-72
2021/12/30 00:06:23;;;;;;;90.35;35.72;;;;;;;6.68;63.36;100192.78;5073771;28;20131;-72
2021/12/30 00:08:52;;;;;;;94.78;35.95;;;;;;;6.74;63.44;100190.47;5073419;28;20114;-72
2021/12/30 00:11:19;;;;;;;94.70;36.15;;;;;;;6.73;63.95;100196.81;5073523;28;20044;-72
2021/12/30 00:13:47;;;;;;;95.25;35.40;;;;;;;6.47;64.64;100194.84;5073345;28;20453;-72
2021/12/30 00:16:15;;;;;;;89.55;35.42;;;;;;;6.41;64.67;100185.59;5072501;28;20524;-72
2021/12/30 00:18:43;;;;;;;89.57;35.85;;;;;;;6.41;64.81;100182.94;5072815;28;20059;-72
2021/12/30 00:21:10;;;;;;;88.28;35.13;;;;;;;6.51;64.35;100190.06;5072203;28;20075;-72
2021/12/30 00:23:36;;;;;;;98.90;37.72;;;;;;;6.26;65.27;100192.38;5072204;28;20492;-72
2021/12/30 00:26:03;;;;;;;84.28;35.22;;;;;;;6.53;64.42;100188.94;5072494;28;20119;-72
2021/12/30 00:28:29;;;;;;;97.25;38.47;;;;;;;6.35;65.58;100188.00;5073491;28;20063;-72
2021/12/30 00:30:56;;;;;;;86.95;36.67;;;;;;;6.76;63.88;100186.69;5072845;28;20127;-72
2021/12/30 00:33:23;;;;;;;85.60;35.50;;;;;;;6.79;63.89;100177.56;5072955;28;20128;-72
2021/12/30 00:35:51;;;;;;;88.07;36.38;;;;;;;6.47;64.50;100171.69;5071163;28;20461;-72
2021/12/30 00:38:18;;;;;;;87.55;35.35;;;;;;;6.74;64.00;100172.69;5070596;28;20056;-72
2021/12/30 00:40:45;;;;;;;86.45;35.55;;;;;;;6.67;64.06;100175.09;5071205;28;20095;-72
2021/12/30 00:43:11;;;;;;;87.55;35.97;;;;;;;6.70;64.00;100172.16;5052844;28;20143;-72
2021/12/30 00:45:38;;;;;;;81.93;34.30;;;;;;;6.71;63.74;100179.16;5070989;28;20139;-72
2021/12/30 00:48:06;;;;;;;81.65;33.22;;;;;;;6.99;63.26;100181.78;5070795;28;20090;-72
2021/12/30 00:50:35;;;;;;;79.47;34.28;;;;;;;6.76;63.57;100185.84;5072272;28;20215;-72
2021/12/30 00:53:04;;;;;;;77.32;33.42;;;;;;;6.89;63.55;100187.19;5072800;28;20412;-72
2021/12/30 00:55:30;;;;;;;82.18;33.50;;;;;;;7.11;62.80;100187.75;5071123;28;20037;-72
2021/12/30 00:57:57;;;;;;;76.43;34.30;;;;;;;6.67;63.55;100196.44;5070428;28;20536;-72
2021/12/30 01:00:24;;;;;;;78.68;34.58;;;;;;;7.18;62.28;100194.16;5071458;28;20056;-72
2021/12/30 01:02:51;;;;;;;72.28;32.83;;;;;;;7.45;61.27;100195.91;5071973;28;20076;-72
2021/12/30 01:05:18;;;;;;;73.45;34.17;;;;;;;6.86;63.77;100198.13;5071386;28;20548;-72
2021/12/30 01:07:45;;;;;;;73.07;32.17;;;;;;;7.06;62.76;100203.38;5065643;28;20071;-72
2021/12/30 01:10:16;;;;;;;78.03;33.80;;;;;;;6.83;63.42;100205.59;5069848;28;20044;-72
2021/12/30 01:12:43;;;;;;;72.28;32.17;;;;;;;7.24;62.05;100208.72;5071471;28;20136;-72
2021/12/30 01:15:12;;;;;;;73.97;33.25;;;;;;;7.24;62.20;100216.72;5069771;28;20075;-72
2021/12/30 01:17:53;;;;;;;68.75;32.33;;;;;;;7.29;61.64;100214.44;5070476;28;20047;-72
2021/12/30 01:20:21;;;;;;;75.38;33.15;;;;;;;7.05;62.07;100218.53;5051929;28;20075;-72
2021/12/30 01:22:49;;;;;;;69.80;31.90;;;;;;;7.10;62.49;100212.75;5071137;28;20049;-72
2021/12/30 01:25:16;;;;;;;71.15;31.38;;;;;;;7.24;62.10;100211.41;5071696;28;20127;-72
2021/12/30 01:27:43;;;;;;;72.40;32.75;;;;;;;7.40;61.09;100216.91;5070871;28;20120;-72
2021/12/30 01:30:13;;;;;;;67.65;31.40;;;;;;;7.00;62.32;100219.97;5068951;28;20045;-72
2021/12/30 01:32:41;;;;;;;73.60;31.98;;;;;;;7.44;61.51;100210.25;5072137;28;20064;-72
2021/12/30 01:35:10;;;;;;;69.40;31.25;;;;;;;7.17;61.63;100209.31;5070644;28;20239;-72
2021/12/30 01:37:37;;;;;;;67.53;33.15;;;;;;;6.86;63.36;100208.81;5071348;28;20044;-72
2021/12/30 01:40:10;;;;;;;67.95;30.73;;;;;;;7.01;62.37;100211.81;5072912;28;20127;-72
2021/12/30 01:42:37;;;;;;;65.78;33.55;;;;;;;7.43;61.85;100208.59;5071389;28;20079;-72
2021/12/30 01:45:05;;;;;;;61.50;31.73;;;;;;;7.22;62.26;100200.03;5071594;28;20132;-72
2021/12/30 01:47:31;;;;;;;65.68;31.17;;;;;;;7.30;61.55;100208.13;5070799;28;20067;-72
2021/12/30 01:49:58;;;;;;;64.35;31.83;;;;;;;7.20;62.20;100224.19;5071059;28;20599;-72
2021/12/30 01:52:24;;;;;;;65.70;32.20;;;;;;;7.33;61.98;100221.16;5070746;28;20166;-72
2021/12/30 01:54:51;;;;;;;66.00;32.05;;;;;;;7.33;61.08;100210.50;5066326;28;20060;-72
2021/12/30 01:57:19;;;;;;;64.38;31.52;;;;;;;7.16;62.00;100207.66;5069019;28;20139;-72
2021/12/30 01:59:46;;;;;;;62.75;32.50;;;;;;;7.14;62.03;100193.63;5071252;28;20395;-72
2021/12/30 02:02:13;;;;;;;66.43;32.88;;;;;;;6.71;63.34;100203.13;5070382;28;20396;-72
2021/12/30 02:04:40;;;;;;;59.22;31.17;;;;;;;7.06;62.83;100211.38;5070518;28;20067;-72
2021/12/30 02:07:21;;;;;;;63.33;31.95;;;;;;;7.00;62.80;100204.78;5070390;28;20115;-72
2021/12/30 02:09:49;;;;;;;68.00;32.03;;;;;;;6.96;63.39;100206.09;5072600;28;20109;-73
2021/12/30 02:12:16;;;;;;;68.57;32.40;;;;;;;6.84;63.42;100201.94;5075121;28;20048;-72
2021/12/30 02:14:43;;;;;;;65.15;32.40;;;;;;;6.99;63.14;100210.28;5074920;28;20051;-72
2021/12/30 02:17:09;;;;;;;66.57;32.28;;;;;;;6.92;63.25;100218.06;5073875;28;20135;-73
2021/12/30 02:19:36;;;;;;;62.70;31.42;;;;;;;7.03;62.84;100196.50;5067276;28;20477;-73
2021/12/30 02:22:03;;;;;;;70.30;33.67;;;;;;;6.92;63.18;100204.72;5076374;28;20119;-73
2021/12/30 02:24:29;;;;;;;69.18;33.47;;;;;;;7.01;63.33;100201.13;5073227;28;20076;-73
2021/12/30 02:26:56;;;;;;;72.70;34.72;;;;;;;7.02;63.18;100199.34;5072955;28;20059;-73
2021/12/30 02:29:23;;;;;;;63.90;32.28;;;;;;;6.93;63.85;100188.56;5071724;28;20052;-72
2021/12/30 02:31:50;;;;;;;69.13;33.15;;;;;;;6.66;64.57;100189.41;5072895;28;20112;-71
2021/12/30 02:34:18;;;;;;;72.78;32.78;;;;;;;7.13;63.45;100186.59;5074311;28;20045;-71
2021/12/30 02:36:47;;;;;;;71.25;33.78;;;;;;;6.70;64.36;100198.81;5073750;28;20131;-71
2021/12/30 02:39:14;;;;;;;76.30;35.53;;;;;;;7.28;62.95;100205.59;5072620;28;20123;-70
2021/12/30 02:41:41;;;;;;;71.55;33.60;;;;;;;7.29;62.21;100201.09;5073946;28;20079;-70
2021/12/30 02:44:08;;;;;;;69.38;32.92;;;;;;;7.31;62.24;100204.47;5072797;28;20131;-70
2021/12/30 02:46:37;;;;;;;75.63;35.28;;;;;;;7.39;61.97;100201.84;5073533;28;20131;-70
2021/12/30 02:49:04;;;;;;;68.82;34.78;;;;;;;7.36;62.83;100207.50;5069140;28;20103;-71
2021/12/30 02:51:31;;;;;;;79.22;35.50;;;;;;;7.66;61.76;100209.78;5054013;28;20041;-71
2021/12/30 02:53:58;;;;;;;71.07;35.28;;;;;;;7.63;62.03;100203.91;5053793;28;20129;-70
2021/12/30 02:56:26;;;;;;;75.05;34.28;;;;;;;7.21;62.96;100219.69;5054131;28;20537;-71
2021/12/30 02:58:53;;;;;;;69.95;34.83;;;;;;;7.26;63.18;100220.09;5053739;28;20132;-70
2021/12/30 03:01:28;;;;;;;73.25;34.67;;;;;;;7.81;61.42;100227.91;5053794;28;20124;-70
2021/12/30 03:03:57;;;;;;;73.22;35.03;;;;;;;7.47;62.16;100231.31;5053762;28;20045;-70
2021/12/30 03:06:24;;;;;;;68.13;33.15;;;;;;;7.52;62.67;100238.84;5055040;28;20132;-70
2021/12/30 03:08:52;;;;;;;72.18;35.13;;;;;;;7.30;63.11;100234.81;5072232;28;20056;-70
2021/12/30 03:11:21;;;;;;;81.22;35.08;;;;;;;7.24;63.20;100236.25;5072761;28;20068;-70
2021/12/30 03:13:48;;;;;;;74.90;34.45;;;;;;;7.73;62.13;100238.53;5071927;28;20041;-71
2021/12/30 03:16:17;;;;;;;76.63;35.03;;;;;;;7.07;63.97;100239.72;5054396;28;20064;-70
2021/12/30 03:18:46;;;;;;;71.07;33.40;;;;;;;7.36;63.43;100243.06;5055445;28;20036;-70
2021/12/30 03:21:15;;;;;;;72.30;34.17;;;;;;;7.53;62.96;100238.69;5072482;28;20501;-70
2021/12/30 03:23:41;;;;;;;73.65;33.38;;;;;;;7.15;63.69;100242.47;5073171;28;20507;-71
2021/12/30 03:26:09;;;;;;;67.05;34.60;;;;;;;7.53;63.23;100254.69;5071903;28;20067;-72
2021/12/30 03:28:39;;;;;;;68.78;32.92;;;;;;;7.43;63.22;100251.28;5072716;28;20128;-70
2021/12/30 03:31:10;;;;;;;76.25;34.28;;;;;;;7.53;63.27;100238.69;5073184;28;20064;-70
2021/12/30 03:33:37;;;;;;;68.75;32.13;;;;;;;7.85;62.22;100248.03;5072895;28;20096;-71
2021/12/30 03:36:05;;;;;;;65.15;32.70;;;;;;;7.54;62.71;100253.75;5072836;28;20044;-70
2021/12/30 03:38:35;;;;;;;69.85;31.73;;;;;;;8.24;60.77;100261.03;5072190;28;20404;-72
2021/12/30 03:41:03;;;;;;;62.13;30.27;;;;;;;7.83;62.20;100252.66;5072458;28;20127;-71
2021/12/30 03:43:29;;;;;;;60.30;29.92;;;;;;;8.04;61.94;100250.53;5071602;28;20040;-70
2021/12/30 03:45:57;;;;;;;60.42;29.60;;;;;;;8.22;61.71;100261.16;5072206;28;20044;-70
2021/12/30 03:48:31;;;;;;;62.25;29.67;;;;;;;8.11;61.73;100245.41;5072094;28;20057;-72
2021/12/30 03:50:57;;;;;;;62.72;30.23;;;;;;;8.20;61.35;100254.31;5073087;28;20041;-71
2021/12/30 03:53:24;;;;;;;55.97;28.48;;;;;;;8.37;61.17;100267.63;5071346;28;20131;-70
2021/12/30 03:55:51;;;;;;;55.42;27.23;;;;;;;8.56;60.53;100279.94;5072595;28;20040;-70
2021/12/30 03:58:18;;;;;;;59.03;28.67;;;;;;;8.11;61.86;100275.63;5070939;28;20048;-72
2021/12/30 04:00:45;;;;;;;53.65;28.20;;;;;;;8.19;61.96;100285.53;5071996;28;20066;-72
2021/12/30 04:03:11;;;;;;;60.75;28.75;;;;;;;8.49;60.96;100280.72;5071485;28;20068;-71
2021/12/30 04:05:37;;;;;;;53.60;27.13;;;;;;;8.60;60.70;100291.16;5072684;28;20116;-72
2021/12/30 04:08:07;;;;;;;57.38;27.90;;;;;;;8.56;60.82;100297.81;5071673;28;20037;-72
2021/12/30 04:10:34;;;;;;;61.95;29.33;;;;;;;8.47;61.32;100304.97;5071713;28;20123;-72
2021/12/30 04:13:00;;;;;;;56.38;27.67;;;;;;;8.60;60.84;100307.19;5071957;28;20127;-72
2021/12/30 04:15:27;;;;;;;70.85;30.58;;;;;;;8.32;62.78;100338.59;5072137;28;20048;-72
2021/12/30 04:17:53;;;;;;;74.55;30.25;;;;;;;8.75;61.09;100328.88;5072153;28;20471;-72
2021/12/30 04:20:20;;;;;;;76.25;30.40;;;;;;;8.56;62.28;100344.09;5071857;28;20124;-72
2021/12/30 04:22:46;;;;;;;74.68;30.30;;;;;;;8.53;62.30;100357.78;5064912;28;20151;-71
2021/12/30 04:25:15;;;;;;;84.43;30.13;;;;;;;8.34;63.46;100358.81;5071629;28;20541;-70
2021/12/30 04:27:42;;;;;;;86.15;32.80;;;;;;;8.87;61.93;100361.53;5072876;28;20115;-70
2021/12/30 04:30:11;;;;;;;90.32;33.95;;;;;;;8.45;63.16;100355.06;5071861;28;20091;-71
2021/12/30 04:32:38;;;;;;;92.70;32.83;;;;;;;8.58;63.03;100355.50;5054781;28;20045;-71
2021/12/30 04:35:07;;;;;;;99.82;34.53;;;;;;;8.35;64.48;100363.16;5072681;28;20056;-71
2021/12/30 04:37:33;;;;;;;111.30;36.33;;;;;;;8.46;64.39;100370.09;5072562;28;20044;-71
2021/12/30 04:40:02;;;;;;;96.60;33.45;;;;;;;8.93;62.62;100372.44;5072331;28;20094;-71
2021/12/30 04:42:29;;;;;;;97.90;34.58;;;;;;;8.79;62.53;100370.34;5072143;28;20064;-71
2021/12/30 04:44:55;;;;;;;102.65;36.88;;;;;;;8.53;63.42;100363.13;5073028;28;20043;-71
2021/12/30 04:47:22;;;;;;;98.68;36.92;;;;;;;8.66;63.29;100378.78;5073126;28;20102;-72
2021/12/30 04:49:49;;;;;;;109.95;35.55;;;;;;;8.53;63.49;100375.66;5072787;28;20592;-71
2021/12/30 04:52:16;;;;;;;99.55;36.70;;;;;;;9.03;62.10;100385.72;5072378;28;20067;-71
2021/12/30 04:54:42;;;;;;;106.07;36.08;;;;;;;9.22;61.71;100387.31;5072769;28;20045;-71
2021/12/30 04:57:09;;;;;;;114.15;38.70;;;;;;;8.70;63.21;100384.66;5071608;28;20544;-71
2021/12/30 04:59:35;;;;;;;118.85;39.00;;;;;;;8.77;63.38;100380.34;5072379;28;20119;-71
2021/12/30 05:02:02;;;;;;;113.80;39.05;;;;;;;9.34;61.86;100383.41;5072147;28;20132;-71
2021/12/30 05:04:29;;;;;;;114.53;38.65;;;;;;;9.00;62.96;100383.34;5054315;28;20135;-71
2021/12/30 05:06:55;;;;;;;118.30;37.95;;;;;;;9.55;61.23;100391.03;5072455;28;20123;-72
2021/12/30 05:09:22;;;;;;;127.07;38.60;;;;;;;9.26;62.12;100383.34;5072672;28;20136;-71
2021/12/30 05:11:49;;;;;;;128.65;40.88;;;;;;;8.86;63.31;100382.09;5072660;28;20048;-71
2021/12/30 05:14:15;;;;;;;122.93;41.38;;;;;;;8.98;63.06;100371.97;5072486;28;20127;-72
2021/12/30 05:16:42;;;;;;;125.13;39.80;;;;;;;8.97;63.06;100381.81;5072084;28;20075;-73
2021/12/30 05:19:09;;;;;;;127.63;40.35;;;;;;;8.98;62.99;100386.16;5072610;28;20105;-72
2021/12/30 05:21:35;;;;;;;117.68;42.20;;;;;;;9.15;62.56;100380.91;5072529;28;20040;-72
2021/12/30 05:24:05;;;;;;;137.77;40.83;;;;;;;9.01;62.83;100393.06;5072399;28;20052;-71
2021/12/30 05:26:32;;;;;;;134.60;42.20;;;;;;;9.34;61.78;100395.94;5072283;28;20131;-71
2021/12/30 05:28:59;;;;;;;133.27;41.75;;;;;;;9.45;61.79;100403.69;5072077;28;20135;-72
2021/12/30 05:31:26;;;;;;;123.93;42.28;;;;;;;8.97;62.61;100400.56;5072199;28;20055;-71
2021/12/30 05:33:53;;;;;;;132.77;44.53;;;;;;;9.00;63.05;100397.56;5054580;28;20044;-71
2021/12/30 05:36:19;;;;;;;143.45;44.50;;;;;;;9.18;62.36;100399.34;5072566;28;20072;-71
2021/12/30 05:38:46;;;;;;;141.10;44.10;;;;;;;9.38;62.24;100395.47;5073611;28;20108;-71
2021/12/30 05:41:14;;;;;;;128.43;42.25;;;;;;;9.52;61.33;100404.72;5072146;28;20173;-71
2021/12/30 05:43:40;;;;;;;133.50;44.70;;;;;;;9.81;60.88;100415.03;5072894;28;20131;-71
2021/12/30 05:46:07;;;;;;;128.00;42.17;;;;;;;9.56;61.45;100430.19;5076050;28;20378;-71
2021/12/30 05:48:33;;;;;;;133.52;43.42;;;;;;;9.69;60.79;100430.56;5075789;28;20116;-71
2021/12/30 05:51:01;;;;;;;131.18;42.33;;;;;;;9.43;61.81;100435.97;5075761;28;20488;-71
2021/12/30 05:53:28;;;;;;;112.35;40.78;;;;;;;9.75;60.94;100431.75;5075786;28;20427;-71
2021/12/30 05:55:55;;;;;;;102.65;40.78;;;;;;;9.74;61.20;100430.06;5076007;28;20067;-71
2021/12/30 05:58:22;;;;;;;117.28;42.72;;;;;;;9.84;60.90;100427.28;5076223;28;20068;-72
2021/12/30 06:00:49;;;;;;;129.52;41.25;;;;;;;9.82;60.96;100435.50;5075546;28;20123;-71
2021/12/30 06:03:19;;;;;;;131.63;43.08;;;;;;;9.40;62.20;100438.13;5075518;28;20457;-71
2021/12/30 06:05:47;;;;;;;125.75;43.60;;;;;;;9.64;61.77;100443.59;5074098;28;20079;-71
2021/12/30 06:08:15;;;;;;;112.22;41.53;;;;;;;9.57;61.45;100443.41;5075410;28;20542;-71
2021/12/30 06:10:43;;;;;;;117.35;41.17;;;;;;;9.69;61.30;100441.28;5075326;28;20127;-72
2021/12/30 06:13:10;;;;;;;105.88;39.03;;;;;;;9.39;62.48;100434.63;5074873;28;20036;-71
2021/12/30 06:15:37;;;;;;;110.80;38.75;;;;;;;9.63;61.59;100446.44;5074217;28;20119;-71
2021/12/30 06:18:03;;;;;;;117.07;39.50;;;;;;;9.28;62.53;100437.56;5075439;28;20127;-71
2021/12/30 06:20:30;;;;;;;102.70;39.95;;;;;;;9.77;61.81;100445.84;5075080;28;20433;-72
2021/12/30 06:22:57;;;;;;;125.10;40.33;;;;;;;9.78;61.65;100447.50;5075304;28;20451;-72
2021/12/30 06:25:24;;;;;;;113.45;38.45;;;;;;;9.82;61.21;100446.19;5075790;28;20127;-71
2021/12/30 06:27:55;;;;;;;108.38;38.42;;;;;;;10.12;60.18;100446.59;5075821;28;20051;-72
2021/12/30 06:30:21;;;;;;;108.25;39.35;;;;;;;10.00;60.33;100449.59;5075764;28;20076;-72
2021/12/30 06:32:48;;;;;;;110.35;36.80;;;;;;;9.97;60.25;100447.25;5074884;28;20074;-71
2021/12/30 06:35:14;;;;;;;104.45;38.88;;;;;;;9.63;61.75;100438.41;5074825;28;20525;-72
2021/12/30 06:37:41;;;;;;;103.50;35.78;;;;;;;9.52;61.43;100440.38;5074002;28;20439;-71
2021/12/30 06:40:11;;;;;;;103.00;36.78;;;;;;;9.82;60.46;100440.84;5075125;28;20433;-71
2021/12/30 06:42:37;;;;;;;107.65;36.78;;;;;;;9.85;60.32;100450.38;5074724;28;20068;-71
2021/12/30 06:45:04;;;;;;;106.88;37.30;;;;;;;9.38;62.68;100459.72;5074391;28;20060;-71
2021/12/30 06:47:31;;;;;;;111.85;37.45;;;;;;;9.61;61.58;100475.22;5074826;28;20053;-71
2021/12/30 06:50:01;;;;;;;102.13;37.28;;;;;;;9.66;61.47;100478.28;5074916;28;20123;-71
2021/12/30 06:52:29;;;;;;;113.38;39.50;;;;;;;9.68;61.66;100481.63;5074481;28;20051;-71
2021/12/30 06:54:56;;;;;;;109.80;36.65;;;;;;;9.69;60.62;100488.66;5074486;28;20066;-71
2021/12/30 06:57:23;;;;;;;104.43;35.10;;;;;;;9.59;61.23;100494.13;5072996;28;20408;-71
2021/12/30 06:59:49;;;;;;;100.20;36.88;;;;;;;9.70;60.79;100488.50;5074877;28;20436;-71
2021/12/30 07:02:16;;;;;;;100.75;35.60;;;;;;;9.69;60.48;100488.66;5075188;28;20047;-71
2021/12/30 07:04:43;;;;;;;104.00;36.22;;;;;;;9.90;60.04;100496.28;5077707;28;20044;-71
2021/12/30 07:07:09;;;;;;;91.15;34.30;;;;;;;9.59;60.98;100499.50;5080410;28;20040;-71
2021/12/30 07:09:36;;;;;;;100.47;33.00;;;;;;;9.96;59.66;100498.34;5074555;28;20391;-71
2021/12/30 07:12:03;;;;;;;118.10;35.20;;;;;;;9.64;60.46;100488.28;5074100;28;20549;-71
2021/12/30 07:14:29;;;;;;;105.72;35.75;;;;;;;9.26;61.83;100501.97;5074625;28;20068;-71
2021/12/30 07:16:56;;;;;;;125.78;36.60;;;;;;;9.82;60.35;100506.97;5074394;28;20064;-71
2021/12/30 07:19:22;;;;;;;101.65;32.83;;;;;;;9.47;61.21;100515.00;5074955;28;20048;-71
2021/12/30 07:21:52;;;;;;;106.30;33.55;;;;;;;9.68;60.92;100521.78;5068307;28;20115;-71
2021/12/30 07:24:23;;;;;;;102.32;33.40;;;;;;;9.46;61.57;100526.69;5075544;28;20074;-71
2021/12/30 07:26:51;;;;;;;96.43;32.83;;;;;;;9.77;60.66;100536.91;5076451;28;20072;-71
2021/12/30 07:29:18;;;;;;;100.80;35.47;;;;;;;9.90;60.33;100528.44;5074902;28;20048;-71
2021/12/30 07:31:45;;;;;;;99.45;32.97;;;;;;;9.46;61.66;100529.38;5073549;28;20067;-71
2021/12/30 07:34:12;;;;;;;97.82;32.42;;;;;;;9.62;61.48;100534.00;5074180;28;20143;-71
2021/12/30 07:36:39;;;;;;;92.82;30.95;;;;;;;9.28;62.41;100536.63;5058087;28;20119;-71
2021/12/30 07:39:05;;;;;;;89.03;32.33;;;;;;;9.86;60.56;100537.81;5055910;28;20127;-72
2021/12/30 07:41:32;;;;;;;108.50;32.80;;;;;;;9.99;60.57;100533.69;5073534;28;20044;-71
2021/12/30 07:43:59;;;;;;;95.65;30.20;;;;;;;9.88;60.85;100539.31;5073555;28;20075;-71
2021/12/30 07:46:25;;;;;;;88.07;32.15;;;;;;;9.99;60.43;100533.69;5073451;28;20064;-71
2021/12/30 07:48:52;;;;;;;98.25;31.60;;;;;;;10.09;60.27;100532.69;5073490;28;20049;-71
2021/12/30 07:51:18;;;;;;;98.55;30.83;;;;;;;10.12;60.09;100537.75;5073018;28;20064;-71
2021/12/30 07:53:44;;;;;;;98.50;31.15;;;;;;;10.09;60.09;100538.91;5073337;28;20128;-71
2021/12/30 07:56:11;;;;;;;93.15;29.48;;;;;;;10.01;60.36;100541.56;5073445;28;20124;-71
2021/12/30 07:58:37;;;;;;;94.15;30.33;;;;;;;10.14;60.21;100541.13;5073390;28;20447;-72
2021/12/30 08:01:04;;;;;;;94.32;30.33;;;;;;;9.82;60.93;100539.09;5072434;28;20197;-71
2021/12/30 08:03:31;;;;;;;92.78;30.63;;;;;;;10.13;60.11;100532.25;5072819;28;20052;-71
2021/12/30 08:05:57;;;;;;;99.25;29.50;;;;;;;9.72;61.48;100532.06;5072838;28;20127;-71
2021/12/30 08:08:24;;;;;;;98.63;31.83;;;;;;;10.11;60.55;100536.06;5071825;28;20139;-71
2021/12/30 08:10:50;;;;;;;81.15;30.77;;;;;;;9.99;60.53;100533.69;5072614;28;20072;-71
2021/12/30 08:13:17;;;;;;;82.97;30.25;;;;;;;10.00;60.54;100534.53;5072469;28;20072;-71
2021/12/30 08:15:44;;;;;;;91.88;30.80;;;;;;;9.68;62.15;100529.81;5073245;28;20098;-71
2021/12/30 08:18:11;;;;;;;92.95;30.90;;;;;;;9.97;61.12;100533.00;5072881;28;20044;-71
2021/12/30 08:20:37;;;;;;;91.30;29.92;;;;;;;10.28;60.35;100527.09;5073056;28;20057;-71
2021/12/30 08:23:04;;;;;;;100.97;32.58;;;;;;;10.00;60.95;100530.00;5071924;28;20044;-71
2021/12/30 08:25:33;;;;;;;96.00;31.38;;;;;;;9.44;62.43;100520.66;5072914;28;20072;-71
2021/12/30 08:27:59;;;;;;;101.82;32.17;;;;;;;9.55;62.92;100517.72;5072507;28;20140;-71
2021/12/30 08:30:26;;;;;;;102.30;31.25;;;;;;;9.83;62.16;100530.94;5072336;28;20106;-71
2021/12/30 08:32:53;;;;;;;92.45;30.38;;;;;;;10.09;61.40;100533.53;5072476;28;20438;-71
2021/12/30 08:35:23;;;;;;;88.95;29.20;;;;;;;10.09;60.87;100535.38;5073141;28;20080;-71
2021/12/30 08:37:52;;;;;;;86.93;29.38;;;;;;;10.25;60.58;100538.13;5072602;28;20067;-71
2021/12/30 08:40:19;;;;;;;86.20;28.10;;;;;;;9.84;61.40;100563.91;5072403;28;20056;-71
2021/12/30 08:42:46;;;;;;;90.50;29.05;;;;;;;10.02;61.45;100560.13;5072696;28;20075;-71
2021/12/30 08:45:13;;;;;;;77.28;29.38;;;;;;;9.80;62.40;100545.47;5072214;28;20445;-71
2021/12/30 08:47:41;;;;;;;91.10;28.70;;;;;;;10.15;60.91;100548.16;5072261;28;20089;-71
2021/12/30 08:50:11;;;;;;;95.30;32.45;;;;;;;9.86;62.39;100544.00;5071887;28;20079;-72
2021/12/30 08:52:38;;;;;;;95.05;30.50;;;;;;;9.64;63.11;100539.19;5072152;28;20131;-71
2021/12/30 08:55:06;;;;;;;82.13;30.27;;;;;;;9.92;62.20;100543.34;5072085;28;20127;-73
2021/12/30 08:57:36;;;;;;;90.32;30.35;;;;;;;9.94;61.90;100546.72;5072290;28;20076;-73
2021/12/30 09:00:05;;;;;;;83.03;29.00;;;;;;;9.66;63.12;100548.75;5071665;28;20064;-73
2021/12/30 09:02:32;;;;;;;76.57;30.08;;;;;;;9.87;62.62;100553.72;5071360;28;20044;-73
2021/12/30 09:04:58;;;;;;;90.35;32.67;;;;;;;9.83;62.69;100564.91;5071555;28;20045;-72
2021/12/30 09:07:25;;;;;;;89.80;31.80;;;;;;;9.73;63.41;100562.34;5071454;28;20455;-73
2021/12/30 09:09:51;;;;;;;94.72;30.10;;;;;;;9.62;63.43;100565.31;5071622;28;20536;-73
2021/12/30 09:12:18;;;;;;;73.55;28.75;;;;;;;9.96;62.89;100566.16;5071317;28;20040;-73
2021/12/30 09:14:51;;;;;;;86.47;28.45;;;;;;;10.11;62.48;100570.91;5071789;28;20044;-73
2021/12/30 09:17:18;;;;;;;82.55;29.88;;;;;;;9.99;62.07;100563.19;5071843;28;20060;-73
2021/12/30 09:19:44;;;;;;;81.75;28.88;;;;;;;10.23;61.63;100569.63;5073407;28;20179;-73
2021/12/30 09:22:11;;;;;;;77.38;27.63;;;;;;;10.10;62.20;100572.75;5075618;28;20496;-73
2021/12/30 09:24:37;;;;;;;80.47;29.35;;;;;;;9.79;62.78;100577.81;5058320;28;20123;-73
2021/12/30 09:27:07;;;;;;;78.05;28.63;;;;;;;10.06;62.08;100590.16;5075288;28;20045;-73
2021/12/30 09:29:34;;;;;;;73.88;28.73;;;;;;;10.08;61.77;100581.97;5075560;28;20136;-71
2021/12/30 09:32:00;;;;;;;75.43;27.35;;;;;;;10.37;61.14;100586.94;5075602;28;20127;-73
2021/12/30 09:34:27;;;;;;;75.55;28.55;;;;;;;9.94;62.15;100584.22;5075820;28;20131;-73
2021/12/30 09:36:54;;;;;;;78.50;29.85;;;;;;;10.09;62.17;100580.94;5075325;28;20135;-73
2021/12/30 09:39:20;;;;;;;66.78;27.30;;;;;;;9.82;63.14;100574.81;5075819;28;20055;-73
2021/12/30 09:41:47;;;;;;;79.22;28.80;;;;;;;9.99;62.26;100579.25;5076436;28;20072;-73
2021/12/30 09:44:17;;;;;;;64.80;28.55;;;;;;;10.26;61.81;100585.38;5075855;28;20060;-73
2021/12/30 09:46:45;;;;;;;85.57;32.22;;;;;;;10.05;61.81;100591.16;5075187;28;20404;-73
2021/12/30 09:49:17;;;;;;;66.07;28.27;;;;;;;9.76;62.48;100594.19;5075336;28;20106;-73
2021/12/30 09:51:44;;;;;;;72.78;28.67;;;;;;;10.05;62.22;100596.50;5075448;28;20040;-74
2021/12/30 09:54:12;;;;;;;62.88;28.10;;;;;;;9.91;62.44;100581.03;5074284;28;20064;-73
2021/12/30 09:56:39;;;;;;;66.00;26.17;;;;;;;10.23;61.63;100580.34;5073740;28;20048;-73
2021/12/30 09:59:07;;;;;;;67.97;27.95;;;;;;;9.75;63.10;100573.72;5075148;28;20139;-73
2021/12/30 10:01:37;;;;;;;69.53;27.63;;;;;;;10.08;61.84;100584.63;5073862;28;20544;-73
2021/12/30 10:04:05;;;;;;;66.93;25.95;;;;;;;9.90;62.44;100566.81;5054664;28;20039;-73
2021/12/30 10:06:33;;;;;;;59.17;25.10;;;;;;;10.24;61.56;100574.00;5074029;28;20064;-73
2021/12/30 10:09:10;;;;;;;58.88;24.60;;;;;;;9.96;62.56;100571.53;5075086;28;20123;-73
2021/12/30 10:11:44;;;;;;;66.90;25.85;;;;;;;9.99;62.36;100568.53;5073397;28;20123;-73
2021/12/30 10:14:12;;;;;;;75.65;26.05;;;;;;;9.96;62.20;100574.22;5074483;28;20090;-73
2021/12/30 10:16:39;;;;;;;56.05;23.17;;;;;;;9.71;62.61;100567.84;5074892;28;20059;-73
2021/12/30 10:19:05;;;;;;;53.35;22.70;;;;;;;9.61;63.24;100561.75;5073656;28;20433;-73
2021/12/30 10:21:40;;;;;;;71.07;24.42;;;;;;;9.72;63.17;100566.03;5074806;28;20049;-73
2021/12/30 10:24:10;;;;;;;52.50;23.80;;;;;;;10.50;60.76;100569.41;5075115;28;20124;-73
2021/12/30 10:26:54;;;;;;;59.97;22.00;;;;;;;10.30;61.58;100557.25;5074950;28;20071;-73
2021/12/30 10:29:21;;;;;;;59.95;23.48;;;;;;;10.23;61.78;100564.25;5074142;28;20083;-73
2021/12/30 10:31:50;;;;;;;48.45;21.42;;;;;;;10.31;61.22;100566.16;5074326;28;20040;-73
2021/12/30 10:34:17;;;;;;;47.75;21.13;;;;;;;10.34;61.14;100566.66;5074448;28;20215;-73
2021/12/30 10:36:47;;;;;;;53.08;21.17;;;;;;;10.04;61.83;100565.34;5074438;28;20119;-73
2021/12/30 10:39:34;;;;;;;56.17;21.73;;;;;;;9.87;62.25;100566.28;5074496;28;20479;-73
2021/12/30 10:42:06;;;;;;;48.85;22.08;;;;;;;10.16;61.66;100558.69;5074113;28;20123;-73
2021/12/30 10:44:53;;;;;;;53.38;21.75;;;;;;;10.11;61.88;100553.00;5074654;28;20448;-72
2021/12/30 10:47:23;;;;;;;47.72;20.20;;;;;;;10.12;62.03;100560.03;5073229;28;20078;-72
2021/12/30 10:50:04;;;;;;;54.00;21.95;;;;;;;10.17;61.74;100556.88;5074225;28;20036;-72
2021/12/30 10:52:31;;;;;;;51.65;21.35;;;;;;;9.92;62.90;100554.06;5073879;28;20135;-73
2021/12/30 10:55:10;;;;;;;59.95;22.33;;;;;;;10.30;61.88;100561.75;5073968;28;20067;-72
2021/12/30 10:57:36;;;;;;;62.38;22.45;;;;;;;10.10;62.23;100553.13;5074316;28;20044;-73
2021/12/30 11:00:08;;;;;;;54.92;21.73;;;;;;;10.21;61.65;100558.22;5073975;28;20044;-72
2021/12/30 11:02:36;;;;;;;54.75;21.80;;;;;;;10.33;61.47;100562.28;5074157;28;20408;-72
2021/12/30 11:05:10;;;;;;;52.08;21.25;;;;;;;9.89;62.63;100559.78;5073780;28;20056;-72
2021/12/30 11:07:37;;;;;;;41.72;19.90;;;;;;;9.96;61.98;100560.81;5074304;28;20450;-72
2021/12/30 11:10:04;;;;;;;51.50;20.13;;;;;;;9.88;62.77;100557.22;5073936;28;20528;-72
2021/12/30 11:12:38;;;;;;;50.03;20.45;;;;;;;9.66;63.41;100559.47;5073856;28;20044;-72
2021/12/30 11:15:18;;;;;;;54.97;20.15;;;;;;;10.17;61.88;100551.53;5073500;28;20132;-72
2021/12/30 11:17:45;;;;;;;52.72;20.65;;;;;;;10.48;61.52;100546.41;5073782;28;20040;-72